Time;durP1;ratioP1;P1;durP2;ratioP2;P2;SDS_P1;SDS_P2;PMS_P1;PMS_P2;Temp;Humidity;BMP_temperature;BMP_pressure;BME280_temperature;BME280_humidity;BME280_pressure;Samples;Min_cycle;Max_cycle;Signal;HPM_P1;HPM_P2
2022/01/02 00:02:12;;;;;;;21.30;19.65;;;7.40;95.20;;;;;;5013155;28;20202;-73
2022/01/02 00:04:44;;;;;;;20.83;19.42;;;7.50;95.90;;;;;;5012961;28;20198;-73
2022/01/02 00:07:14;;;;;;;22.13;20.48;;;7.60;94.50;;;;;;5012854;28;20198;-73
2022/01/02 00:09:47;;;;;;;23.75;21.85;;;7.50;93.70;;;;;;5012750;28;20218;-73
2022/01/02 00:12:17;;;;;;;23.33;21.52;;;7.50;93.90;;;;;;5012329;28;20276;-73
2022/01/02 00:14:46;;;;;;;21.85;20.15;;;7.50;93.50;;;;;;5012796;28;20562;-73
2022/01/02 00:17:16;;;;;;;21.42;19.90;;;7.50;93.70;;;;;;5012646;28;20252;-73
2022/01/02 00:19:52;;;;;;;21.17;19.77;;;7.50;94.50;;;;;;5012620;28;20260;-73
2022/01/02 00:22:24;;;;;;;22.30;20.58;;;7.50;95.60;;;;;;5012808;28;20717;-73
2022/01/02 00:24:54;;;;;;;22.83;21.05;;;7.40;94.90;;;;;;5012651;28;20238;-73
2022/01/02 00:27:21;;;;;;;24.88;22.45;;;7.40;95.40;;;;;;5012788;28;20208;-73
2022/01/02 00:29:51;;;;;;;74.00;24.73;;;7.40;97.80;;;;;;5012394;28;20217;-73
2022/01/02 00:32:19;;;;;;;22.15;20.55;;;7.40;97.70;;;;;;5012808;28;20236;-73
2022/01/02 00:34:51;;;;;;;21.30;19.77;;;7.40;96.20;;;;;;5012474;28;20687;-73
2022/01/02 00:37:18;;;;;;;21.83;20.17;;;7.40;95.10;;;;;;5012645;28;20201;-73
2022/01/02 00:39:45;;;;;;;20.60;19.20;;;7.30;94.70;;;;;;5012460;28;20304;-73
2022/01/02 00:42:20;;;;;;;22.25;20.65;;;7.40;94.40;;;;;;5012569;28;20650;-73
2022/01/02 00:44:58;;;;;;;21.08;19.60;;;7.30;94.40;;;;;;5012365;28;20206;-73
2022/01/02 00:47:37;;;;;;;20.90;19.60;;;7.30;93.50;;;;;;5012815;28;20609;-73
2022/01/02 00:50:08;;;;;;;20.27;19.08;;;7.30;94.60;;;;;;5012058;28;20222;-73
2022/01/02 00:52:40;;;;;;;20.95;19.40;;;7.20;94.10;;;;;;5012389;28;20698;-73
2022/01/02 00:55:08;;;;;;;21.65;20.10;;;7.20;94.30;;;;;;5012621;28;20206;-73
2022/01/02 00:57:39;;;;;;;21.77;20.30;;;7.20;93.80;;;;;;5012433;28;20194;-73
2022/01/02 01:00:10;;;;;;;21.17;19.67;;;7.20;93.80;;;;;;5012517;28;20575;-73
2022/01/02 01:02:44;;;;;;;20.83;19.50;;;7.10;93.60;;;;;;5012579;28;20198;-73
2022/01/02 01:05:19;;;;;;;22.70;21.15;;;7.10;93.30;;;;;;5012420;28;20690;-73
2022/01/02 01:07:48;;;;;;;21.20;19.90;;;7.10;92.80;;;;;;5012535;28;20198;-73
2022/01/02 01:10:15;;;;;;;20.40;18.90;;;7.00;92.90;;;;;;5012242;28;20217;-73
2022/01/02 01:12:45;;;;;;;21.08;19.67;;;6.90;93.10;;;;;;5012278;28;20317;-73
2022/01/02 01:15:12;;;;;;;22.20;20.65;;;7.00;92.90;;;;;;5012370;28;20382;-74
2022/01/02 01:17:40;;;;;;;20.80;19.58;;;7.00;92.70;;;;;;5012288;28;20656;-74
2022/01/02 01:20:12;;;;;;;20.45;19.25;;;7.00;93.20;;;;;;5012190;28;20766;-73
2022/01/02 01:22:39;;;;;;;53.95;22.63;;;7.00;93.70;;;;;;5012362;28;20663;-73
2022/01/02 01:25:12;;;;;;;20.70;19.38;;;7.00;95.20;;;;;;5014814;28;20292;-73
2022/01/02 01:27:39;;;;;;;20.92;19.60;;;7.00;95.10;;;;;;5015852;28;20229;-73
2022/01/02 01:30:08;;;;;;;19.70;18.40;;;7.00;93.90;;;;;;5015522;28;20221;-73
2022/01/02 01:32:35;;;;;;;19.65;18.35;;;6.90;93.70;;;;;;5015587;28;20289;-73
2022/01/02 01:35:03;;;;;;;19.88;18.58;;;6.90;93.70;;;;;;5015693;28;20288;-73
2022/01/02 01:37:30;;;;;;;20.80;19.40;;;6.90;93.70;;;;;;5015555;28;20205;-73
2022/01/02 01:39:57;;;;;;;20.50;19.10;;;6.90;94.90;;;;;;5015550;28;20305;-73
2022/01/02 01:42:32;;;;;;;18.52;17.42;;;6.90;95.60;;;;;;5015592;28;20288;-73
2022/01/02 01:47:46;;;;;;;19.40;18.10;;;6.90;95.40;;;;;;5015797;28;20283;-73
2022/01/02 01:50:13;;;;;;;20.67;19.38;;;6.90;95.00;;;;;;5015428;28;20217;-73
2022/01/02 01:52:41;;;;;;;19.25;17.95;;;7.00;94.60;;;;;;5015206;28;20209;-73
2022/01/02 01:55:08;;;;;;;18.88;17.67;;;7.00;93.80;;;;;;5015520;28;20205;-73
2022/01/02 01:57:36;;;;;;;17.60;16.50;;;7.10;93.40;;;;;;5015238;28;20285;-73
2022/01/02 02:00:05;;;;;;;18.88;17.73;;;7.10;93.90;;;;;;5015081;28;20576;-73
2022/01/02 02:02:33;;;;;;;20.20;18.75;;;7.00;94.10;;;;;;5015279;28;20290;-73
2022/01/02 02:05:09;;;;;;;18.88;17.70;;;7.00;93.70;;;;;;5015116;28;20263;-73
2022/01/02 02:07:43;;;;;;;19.25;18.05;;;7.00;93.30;;;;;;5015168;28;20201;-73
2022/01/02 02:10:14;;;;;;;19.23;17.92;;;7.10;92.90;;;;;;5014792;28;20703;-73
2022/01/02 02:12:43;;;;;;;19.92;18.73;;;7.10;92.90;;;;;;5015050;28;20202;-73
2022/01/02 02:15:12;;;;;;;18.50;17.45;;;7.10;92.70;;;;;;5015007;28;20563;-73
2022/01/02 02:17:39;;;;;;;19.08;17.88;;;7.20;92.50;;;;;;5014879;28;20202;-73
2022/01/02 02:20:18;;;;;;;19.75;18.35;;;7.20;92.10;;;;;;5014608;28;20218;-73
2022/01/02 02:22:48;;;;;;;18.95;17.75;;;7.30;92.00;;;;;;5014985;28;20556;-73
2022/01/02 02:25:17;;;;;;;19.10;18.00;;;7.20;91.50;;;;;;5014918;28;20655;-73
2022/01/02 02:27:50;;;;;;;19.83;18.63;;;7.20;91.70;;;;;;5014821;28;20224;-73
2022/01/02 02:30:17;;;;;;;20.05;18.65;;;7.20;91.40;;;;;;5014416;28;20276;-73
2022/01/02 02:32:44;;;;;;;19.50;18.20;;;7.20;90.90;;;;;;5014618;28;20204;-73
2022/01/02 02:35:11;;;;;;;20.05;18.80;;;7.20;90.50;;;;;;5014083;28;20276;-73
2022/01/02 02:37:42;;;;;;;19.38;18.05;;;7.20;90.60;;;;;;5014288;28;20198;-73
2022/01/02 02:40:10;;;;;;;21.33;19.83;;;7.20;90.60;;;;;;5014413;28;20218;-73
2022/01/02 02:42:44;;;;;;;20.35;19.15;;;7.20;90.50;;;;;;5014605;28;20198;-73
2022/01/02 02:50:47;;;;;;;19.10;17.92;;;7.20;89.90;;;;;;5014215;28;20217;-74
2022/01/02 02:53:16;;;;;;;20.27;18.77;;;7.20;90.10;;;;;;5014058;28;20636;-73
2022/01/02 02:55:45;;;;;;;18.98;17.77;;;7.10;90.20;;;;;;5014224;28;20206;-73
2022/01/02 02:58:38;;;;;;;19.88;18.58;;;7.10;90.50;;;;;;5014283;28;20682;-73
2022/01/02 03:01:04;;;;;;;19.20;18.00;;;7.10;90.90;;;;;;5014080;28;20202;-73
2022/01/02 03:03:33;;;;;;;20.20;18.95;;;7.10;90.30;;;;;;5014205;28;20208;-73
2022/01/02 03:05:59;;;;;;;19.95;18.70;;;7.10;90.00;;;;;;5013912;28;20284;-73
2022/01/02 03:08:28;;;;;;;20.52;19.15;;;7.10;89.90;;;;;;5013952;28;20567;-73
2022/01/02 03:10:55;;;;;;;19.50;18.40;;;7.00;90.20;;;;;;5013920;28;20200;-73
2022/01/02 03:13:22;;;;;;;18.40;17.40;;;7.00;90.30;;;;;;5013951;28;20221;-73
2022/01/02 03:15:49;;;;;;;20.25;18.85;;;7.00;91.20;;;;;;5013829;28;20197;-73
2022/01/02 03:18:16;;;;;;;20.75;19.35;;;7.00;92.60;;;;;;5013683;28;20198;-74
2022/01/02 03:20:43;;;;;;;20.42;19.23;;;7.00;91.70;;;;;;5013680;28;20329;-73
2022/01/02 03:23:10;;;;;;;19.25;18.02;;;7.10;90.80;;;;;;5013828;28;20204;-73
2022/01/02 03:25:38;;;;;;;20.75;19.10;;;7.10;90.20;;;;;;5013822;28;20194;-73
2022/01/02 03:28:05;;;;;;;19.40;18.10;;;7.10;90.20;;;;;;5013650;28;20659;-73
2022/01/02 03:30:32;;;;;;;20.20;18.80;;;7.10;90.00;;;;;;5013387;28;20648;-73
2022/01/02 03:32:59;;;;;;;19.58;18.27;;;7.10;90.00;;;;;;5013582;28;20627;-73
2022/01/02 03:35:27;;;;;;;20.30;19.10;;;7.00;89.90;;;;;;5013520;28;20652;-73
2022/01/02 03:37:54;;;;;;;19.58;18.35;;;7.10;90.40;;;;;;5013544;28;20198;-73
2022/01/02 03:40:21;;;;;;;19.58;18.38;;;7.10;89.90;;;;;;5013133;28;20300;-73
2022/01/02 03:42:49;;;;;;;19.33;18.23;;;7.10;89.30;;;;;;5013527;28;20238;-73
2022/01/02 03:45:16;;;;;;;21.05;19.55;;;7.10;89.60;;;;;;5013228;28;20202;-73
2022/01/02 03:47:43;;;;;;;72.53;23.15;;;7.10;89.60;;;;;;5013018;28;20194;-73
2022/01/02 03:50:10;;;;;;;20.27;18.95;;;7.10;90.40;;;;;;5012854;28;20221;-73
2022/01/02 03:52:37;;;;;;;20.48;19.27;;;7.00;90.50;;;;;;5013052;28;20210;-73
2022/01/02 03:55:05;;;;;;;20.52;19.25;;;7.00;90.50;;;;;;5012413;28;20253;-73
2022/01/02 03:57:32;;;;;;;21.05;19.75;;;7.00;90.50;;;;;;5012444;28;20236;-73
2022/01/02 04:00:00;;;;;;;20.35;19.15;;;6.90;90.90;;;;;;5012054;28;20213;-73
2022/01/02 04:02:27;;;;;;;21.15;19.85;;;6.80;91.10;;;;;;5012569;28;20204;-73
2022/01/02 04:04:54;;;;;;;20.83;19.52;;;6.90;90.80;;;;;;5012381;28;20276;-73
2022/01/02 04:07:21;;;;;;;20.45;19.15;;;6.90;91.10;;;;;;5012304;28;20229;-73
2022/01/02 04:09:48;;;;;;;20.20;18.90;;;6.90;91.80;;;;;;5012092;28;20213;-73
2022/01/02 04:12:15;;;;;;;19.83;18.63;;;6.90;92.50;;;;;;5012269;28;20202;-73
2022/01/02 04:14:42;;;;;;;20.92;19.60;;;6.80;91.60;;;;;;5012068;28;20226;-73
2022/01/02 04:17:10;;;;;;;21.10;19.80;;;6.80;91.40;;;;;;5012075;28;20549;-73
2022/01/02 04:19:37;;;;;;;20.38;19.17;;;6.80;91.00;;;;;;5011783;28;20221;-73
2022/01/02 04:22:04;;;;;;;20.35;19.05;;;6.70;90.80;;;;;;5012326;28;20198;-73
2022/01/02 04:24:31;;;;;;;20.38;19.17;;;6.70;91.00;;;;;;5012055;28;20240;-73
2022/01/02 04:26:58;;;;;;;21.67;19.48;;;6.70;91.80;;;;;;5012099;28;20200;-73
2022/01/02 04:29:25;;;;;;;21.23;19.63;;;6.70;92.10;;;;;;5011824;28;20228;-73
2022/01/02 04:31:51;;;;;;;20.70;19.38;;;6.70;91.70;;;;;;5012050;28;20217;-73
2022/01/02 04:34:20;;;;;;;20.08;18.70;;;6.70;91.30;;;;;;5011865;28;20313;-73
2022/01/02 04:36:46;;;;;;;20.15;18.95;;;6.70;91.30;;;;;;5012070;28;20198;-73
2022/01/02 04:39:13;;;;;;;21.17;19.85;;;6.70;91.20;;;;;;5011749;28;20758;-73
2022/01/02 04:41:40;;;;;;;19.95;18.65;;;6.80;90.10;;;;;;5011859;28;20285;-73
2022/01/02 04:44:07;;;;;;;20.40;19.10;;;6.70;90.00;;;;;;5011717;28;20656;-73
2022/01/02 04:46:34;;;;;;;20.98;19.77;;;6.60;90.10;;;;;;5011904;28;20200;-73
2022/01/02 04:49:01;;;;;;;18.70;17.70;;;6.60;90.80;;;;;;5011660;28;20222;-73
2022/01/02 04:51:29;;;;;;;20.60;19.38;;;6.60;90.80;;;;;;5011744;28;20229;-73
2022/01/02 04:53:56;;;;;;;20.58;19.17;;;6.50;91.40;;;;;;4974863;28;1078901;-73
2022/01/02 04:56:23;;;;;;;19.95;18.75;;;6.40;91.50;;;;;;5012601;28;20202;-73
2022/01/02 04:58:50;;;;;;;20.60;19.30;;;6.40;91.50;;;;;;5013177;28;20228;-73
2022/01/02 05:01:17;;;;;;;21.10;19.80;;;6.40;91.60;;;;;;5016266;28;20290;-73
2022/01/02 05:03:44;;;;;;;19.75;18.65;;;6.30;91.10;;;;;;5016381;28;20285;-73
2022/01/02 05:06:12;;;;;;;20.50;19.20;;;6.30;91.00;;;;;;5016347;28;20209;-74
2022/01/02 05:08:43;;;;;;;20.75;19.52;;;6.30;91.20;;;;;;5016198;28;20224;-73
2022/01/02 05:11:10;;;;;;;20.80;19.50;;;6.40;90.90;;;;;;5016247;28;20288;-73
2022/01/02 05:13:37;;;;;;;20.23;18.92;;;6.40;90.70;;;;;;5016147;28;20575;-73
2022/01/02 05:16:04;;;;;;;20.35;19.08;;;6.40;90.90;;;;;;5016130;28;20690;-73
2022/01/02 05:18:31;;;;;;;21.17;19.67;;;6.40;90.60;;;;;;5015849;28;20212;-73
2022/01/02 05:20:58;;;;;;;20.40;19.10;;;6.30;90.70;;;;;;5016030;28;20545;-73
2022/01/02 05:23:25;;;;;;;20.95;19.55;;;6.30;90.90;;;;;;5016030;28;20284;-73
2022/01/02 05:25:53;;;;;;;20.90;19.60;;;6.30;90.60;;;;;;5015871;28;20196;-73
2022/01/02 05:28:20;;;;;;;20.98;19.75;;;6.30;90.60;;;;;;5015841;28;20288;-73
2022/01/02 05:30:46;;;;;;;21.13;19.73;;;6.30;90.50;;;;;;5015644;28;20305;-73
2022/01/02 05:33:13;;;;;;;20.98;19.70;;;6.20;90.80;;;;;;5015842;28;20198;-73
2022/01/02 05:35:40;;;;;;;21.02;19.80;;;6.20;91.50;;;;;;5015656;28;20715;-73
2022/01/02 05:38:07;;;;;;;20.80;19.60;;;6.20;91.60;;;;;;5015717;28;20194;-73
2022/01/02 05:40:34;;;;;;;20.67;19.20;;;6.20;91.20;;;;;;5015364;28;20218;-73
2022/01/02 05:43:05;;;;;;;20.05;18.85;;;6.20;91.20;;;;;;5015668;28;20602;-73
2022/01/02 05:45:33;;;;;;;19.85;18.65;;;6.10;91.30;;;;;;5015237;28;20297;-73
2022/01/02 05:48:01;;;;;;;20.25;19.05;;;6.30;91.20;;;;;;5015692;28;20289;-73
2022/01/02 05:50:28;;;;;;;19.63;18.52;;;6.20;91.10;;;;;;5015046;28;20221;-73
2022/01/02 05:52:55;;;;;;;20.30;18.80;;;6.30;91.50;;;;;;5015382;28;20233;-73
2022/01/02 05:55:22;;;;;;;19.88;18.77;;;6.30;91.60;;;;;;5015293;28;20222;-73
2022/01/02 05:57:49;;;;;;;19.73;18.60;;;6.30;91.50;;;;;;5015399;28;20575;-73
2022/01/02 06:00:17;;;;;;;20.40;19.00;;;6.30;91.50;;;;;;5015149;28;20222;-73
2022/01/02 06:02:44;;;;;;;19.85;18.65;;;6.40;91.40;;;;;;5015404;28;20202;-73
2022/01/02 06:05:11;;;;;;;20.65;19.35;;;6.40;91.40;;;;;;5015144;28;20285;-73
2022/01/02 06:07:38;;;;;;;20.48;19.13;;;6.50;91.50;;;;;;5015155;28;20289;-73
2022/01/02 06:10:06;;;;;;;19.90;18.80;;;6.50;91.50;;;;;;5014265;28;20249;-73
2022/01/02 06:12:33;;;;;;;20.70;19.30;;;6.50;91.40;;;;;;5014779;28;20289;-73
2022/01/02 06:15:00;;;;;;;20.73;19.52;;;6.60;91.30;;;;;;5014969;28;20253;-73
2022/01/02 06:17:28;;;;;;;19.55;18.38;;;6.60;91.20;;;;;;5014919;28;20277;-74
2022/01/02 06:19:55;;;;;;;20.50;19.40;;;6.60;91.20;;;;;;5014652;28;20221;-74
2022/01/02 06:22:22;;;;;;;22.77;20.40;;;6.70;91.80;;;;;;5014996;28;20197;-73
2022/01/02 06:24:49;;;;;;;21.42;20.05;;;6.70;92.80;;;;;;5014987;28;20655;-73
2022/01/02 06:27:15;;;;;;;19.95;18.85;;;6.80;91.90;;;;;;5014835;28;20286;-73
2022/01/02 06:29:42;;;;;;;21.52;20.23;;;6.80;91.20;;;;;;5014554;28;20222;-74
2022/01/02 06:32:09;;;;;;;21.88;20.58;;;6.80;91.00;;;;;;5014651;28;20237;-73
2022/01/02 06:34:38;;;;;;;20.35;19.10;;;6.90;90.40;;;;;;5014456;28;20299;-73
2022/01/02 06:37:05;;;;;;;22.10;20.70;;;7.10;89.40;;;;;;5014555;28;20200;-73
2022/01/02 06:39:31;;;;;;;22.02;20.63;;;7.10;88.90;;;;;;5014274;28;20568;-74
2022/01/02 06:41:58;;;;;;;22.30;20.90;;;7.10;89.00;;;;;;5014487;28;20659;-73
2022/01/02 06:44:25;;;;;;;20.83;19.48;;;7.00;91.40;;;;;;5014361;28;20292;-73
2022/01/02 06:46:52;;;;;;;21.05;19.77;;;7.00;90.40;;;;;;5014472;28;20280;-73
2022/01/02 06:49:19;;;;;;;20.65;19.35;;;7.10;89.40;;;;;;5013972;28;20298;-73
2022/01/02 06:51:47;;;;;;;22.27;20.80;;;7.20;88.70;;;;;;5014415;28;20208;-73
2022/01/02 06:54:14;;;;;;;22.58;21.17;;;7.20;88.30;;;;;;5014177;28;20209;-73
2022/01/02 06:56:41;;;;;;;21.40;20.10;;;7.20;88.30;;;;;;5014316;28;20202;-73
2022/01/02 06:59:08;;;;;;;20.10;18.90;;;7.30;88.50;;;;;;5014134;28;20238;-73
2022/01/02 07:01:35;;;;;;;20.33;19.05;;;7.30;88.20;;;;;;5014078;28;20206;-73
2022/01/02 07:04:02;;;;;;;23.15;21.65;;;7.30;88.30;;;;;;5014174;28;20194;-74
2022/01/02 07:06:28;;;;;;;23.58;22.15;;;7.20;88.70;;;;;;5014110;28;20201;-73
2022/01/02 07:08:57;;;;;;;21.30;20.05;;;7.20;88.70;;;;;;5013910;28;20248;-73
2022/01/02 07:11:24;;;;;;;22.65;21.35;;;7.30;88.60;;;;;;5013916;28;20293;-73
2022/01/02 07:13:50;;;;;;;21.88;20.60;;;7.30;88.60;;;;;;5013860;28;20201;-73
2022/01/02 07:16:17;;;;;;;21.48;20.17;;;7.30;90.80;;;;;;5013785;28;20304;-73
2022/01/02 07:18:44;;;;;;;20.42;19.23;;;7.30;90.20;;;;;;5013835;28;20707;-74
2022/01/02 07:21:11;;;;;;;20.70;19.55;;;7.40;89.60;;;;;;5013594;28;20197;-73
2022/01/02 07:23:38;;;;;;;21.08;19.50;;;7.50;89.00;;;;;;5013518;28;20234;-73
2022/01/02 07:26:06;;;;;;;22.15;20.95;;;7.60;88.30;;;;;;5013855;28;20273;-73
2022/01/02 07:28:33;;;;;;;22.67;21.48;;;7.60;88.20;;;;;;5013497;28;20201;-73
2022/01/02 07:31:00;;;;;;;23.02;21.70;;;7.60;88.20;;;;;;5013452;28;20208;-73
2022/01/02 07:33:27;;;;;;;21.77;20.48;;;7.60;88.20;;;;;;5013631;28;20198;-73
2022/01/02 07:35:54;;;;;;;20.13;18.92;;;7.50;88.40;;;;;;5013452;28;20226;-73
2022/01/02 07:38:21;;;;;;;22.30;21.05;;;7.50;92.00;;;;;;5013481;28;20292;-73
2022/01/02 07:40:49;;;;;;;21.33;19.83;;;7.50;90.70;;;;;;5013308;28;20289;-73
2022/01/02 07:43:17;;;;;;;23.10;21.60;;;7.60;90.30;;;;;;5013502;28;20292;-73
2022/01/02 07:45:44;;;;;;;23.90;21.92;;;7.60;89.30;;;;;;5013222;28;20209;-73
2022/01/02 07:48:11;;;;;;;22.50;20.95;;;7.60;89.20;;;;;;5013431;28;20280;-73
2022/01/02 07:50:37;;;;;;;20.75;19.55;;;7.50;88.90;;;;;;5012983;28;20218;-73
2022/01/02 07:53:04;;;;;;;22.95;21.55;;;7.60;89.80;;;;;;5013203;28;20575;-74
2022/01/02 07:55:31;;;;;;;22.58;21.02;;;7.50;89.50;;;;;;5012936;28;20707;-74
2022/01/02 07:57:58;;;;;;;24.48;22.77;;;7.50;88.70;;;;;;5012993;28;20293;-73
2022/01/02 08:00:26;;;;;;;22.77;21.38;;;7.40;89.10;;;;;;5012907;28;20222;-74
2022/01/02 08:02:53;;;;;;;23.25;21.85;;;7.40;89.10;;;;;;5013124;28;20198;-73
2022/01/02 08:05:20;;;;;;;24.70;23.10;;;7.40;88.60;;;;;;5013081;28;20277;-73
2022/01/02 08:07:47;;;;;;;24.90;23.30;;;7.50;87.90;;;;;;5013088;28;20293;-73
2022/01/02 08:10:14;;;;;;;25.92;24.10;;;7.50;87.60;;;;;;5012741;28;20232;-73
2022/01/02 08:12:41;;;;;;;25.33;23.55;;;7.50;87.80;;;;;;5013107;28;20697;-73
2022/01/02 08:15:08;;;;;;;27.02;23.38;;;7.50;87.60;;;;;;5012888;28;20615;-73
2022/01/02 08:17:37;;;;;;;25.30;23.50;;;7.50;90.20;;;;;;5012936;28;20285;-73
2022/01/02 08:20:05;;;;;;;24.23;22.73;;;7.50;89.20;;;;;;5012789;28;20214;-73
2022/01/02 08:22:32;;;;;;;24.45;22.95;;;7.60;87.90;;;;;;5012860;28;20639;-73
2022/01/02 08:24:58;;;;;;;25.33;23.67;;;7.60;87.50;;;;;;5012887;28;20198;-73
2022/01/02 08:27:25;;;;;;;23.88;22.17;;;7.70;87.10;;;;;;5012944;28;20663;-74
2022/01/02 08:29:52;;;;;;;26.55;24.83;;;7.80;86.70;;;;;;5012911;28;20228;-73
2022/01/02 08:32:19;;;;;;;26.52;24.65;;;7.90;86.40;;;;;;5012931;28;20288;-73
2022/01/02 08:34:47;;;;;;;25.65;24.10;;;8.00;86.20;;;;;;5015141;28;20208;-73
2022/01/02 08:37:15;;;;;;;24.73;23.08;;;8.20;86.10;;;;;;5016817;28;20679;-73
2022/01/02 08:39:42;;;;;;;26.20;24.10;;;8.30;85.20;;;;;;5016567;28;20308;-73
2022/01/02 08:42:10;;;;;;;25.10;23.50;;;8.30;85.20;;;;;;5016933;28;20483;-73
2022/01/02 08:44:38;;;;;;;26.30;24.43;;;8.30;85.00;;;;;;5016782;28;20205;-73
2022/01/02 08:47:08;;;;;;;25.85;24.15;;;8.30;85.10;;;;;;5016874;28;21003;-73
2022/01/02 08:49:35;;;;;;;25.75;24.15;;;8.30;85.80;;;;;;5016386;28;20387;-73
2022/01/02 08:52:06;;;;;;;26.17;24.47;;;8.30;85.60;;;;;;5016809;28;20294;-73
2022/01/02 08:54:33;;;;;;;26.13;24.47;;;8.40;86.30;;;;;;5016466;28;20527;-73
2022/01/02 08:57:02;;;;;;;25.67;24.00;;;8.50;86.00;;;;;;5016454;28;20560;-73
2022/01/02 08:59:31;;;;;;;25.70;24.10;;;8.60;84.80;;;;;;5016213;28;21001;-73
2022/01/02 09:01:58;;;;;;;26.57;24.90;;;8.80;84.00;;;;;;5016375;28;20950;-73
2022/01/02 09:04:25;;;;;;;26.93;25.20;;;8.90;83.20;;;;;;5016463;28;20467;-73
2022/01/02 09:06:52;;;;;;;26.03;24.23;;;8.80;84.10;;;;;;5016379;28;20456;-73
2022/01/02 09:09:24;;;;;;;24.80;23.30;;;8.90;89.60;;;;;;5016072;28;20831;-74
2022/01/02 09:11:51;;;;;;;26.73;24.93;;;8.90;87.50;;;;;;5016216;28;20449;-73
2022/01/02 09:14:18;;;;;;;26.40;24.70;;;9.10;86.00;;;;;;5016205;28;20934;-73
2022/01/02 09:16:46;;;;;;;27.40;25.43;;;9.20;82.50;;;;;;5016123;28;20481;-73
2022/01/02 09:19:21;;;;;;;25.07;23.57;;;9.10;81.70;;;;;;5015938;28;20938;-73
2022/01/02 09:21:48;;;;;;;26.40;24.80;;;9.10;82.30;;;;;;5016216;28;20460;-73
2022/01/02 09:24:15;;;;;;;27.30;25.27;;;9.20;82.30;;;;;;5016057;28;20640;-73
2022/01/02 09:26:49;;;;;;;26.93;25.13;;;9.30;82.70;;;;;;5040440;22;20582;-73
2022/01/02 09:29:16;;;;;;;27.90;25.30;;;9.40;84.60;;;;;;5035651;28;20904;-73
2022/01/02 09:31:43;;;;;;;26.50;24.80;;;9.60;85.80;;;;;;5035730;28;20526;-73
2022/01/02 09:34:10;;;;;;;25.90;24.20;;;9.60;83.10;;;;;;5035760;28;20887;-73
2022/01/02 09:36:38;;;;;;;28.90;27.00;;;9.80;82.00;;;;;;5035368;28;20471;-73
2022/01/02 09:39:05;;;;;;;28.10;26.07;;;9.90;81.10;;;;;;5035527;28;20479;-73
2022/01/02 09:41:33;;;;;;;29.33;27.20;;;9.90;80.50;;;;;;5035619;28;20455;-73
2022/01/02 09:44:01;;;;;;;26.63;24.97;;;10.00;80.00;;;;;;5035463;28;20459;-73
2022/01/02 09:46:29;;;;;;;56.27;28.93;;;10.00;80.70;;;;;;5035186;28;20539;-73
2022/01/02 09:48:56;;;;;;;27.17;25.33;;;10.00;82.00;;;;;;5035316;28;20472;-74
2022/01/02 09:51:26;;;;;;;26.53;24.87;;;10.10;81.40;;;;;;5035162;28;20547;-73
2022/01/02 09:53:54;;;;;;;26.20;24.50;;;10.10;80.50;;;;;;5035218;28;20964;-73
2022/01/02 09:56:21;;;;;;;27.30;25.60;;;10.10;80.00;;;;;;5035199;28;20471;-74
2022/01/02 09:58:48;;;;;;;26.37;24.80;;;10.20;79.40;;;;;;5035114;28;20555;-74
2022/01/02 10:01:18;;;;;;;25.87;24.07;;;10.20;81.90;;;;;;5035030;28;20455;-74
2022/01/02 10:03:50;;;;;;;26.80;25.10;;;10.40;80.40;;;;;;5035085;28;20531;-74
2022/01/02 10:06:18;;;;;;;30.33;28.23;;;10.40;78.70;;;;;;5035213;28;20498;-73
2022/01/02 10:08:45;;;;;;;29.03;27.13;;;10.50;78.30;;;;;;5034895;28;20472;-73
2022/01/02 10:11:18;;;;;;;27.33;25.50;;;10.40;77.80;;;;;;5034787;28;20456;-73
2022/01/02 10:13:47;;;;;;;28.47;26.47;;;10.50;77.70;;;;;;5035038;28;20459;-73
2022/01/02 10:16:24;;;;;;;29.57;27.67;;;10.50;78.10;;;;;;5034769;28;20476;-73
2022/01/02 10:18:52;;;;;;;28.73;26.83;;;10.50;80.80;;;;;;5034688;28;20554;-74
2022/01/02 10:21:34;;;;;;;30.30;28.43;;;10.50;81.30;;;;;;5034595;28;20459;-74
2022/01/02 10:24:16;;;;;;;25.87;24.27;;;10.50;81.80;;;;;;5034756;28;20454;-73
2022/01/02 10:27:04;;;;;;;28.00;26.20;;;10.50;81.20;;;;;;5034661;28;20469;-74
2022/01/02 10:29:43;;;;;;;28.00;26.17;;;10.50;80.40;;;;;;5034377;28;20472;-74
2022/01/02 10:32:31;;;;;;;29.10;27.03;;;10.50;79.40;;;;;;5034688;28;20458;-74
2022/01/02 10:35:10;;;;;;;28.00;26.10;;;10.40;79.10;;;;;;5034388;28;20451;-73
2022/01/02 10:37:38;;;;;;;29.60;27.60;;;10.40;80.00;;;;;;5034340;28;20479;-73
2022/01/02 10:40:06;;;;;;;28.20;26.40;;;10.40;80.20;;;;;;5034161;28;20474;-73
2022/01/02 10:42:44;;;;;;;27.33;25.60;;;10.50;80.00;;;;;;5034340;28;20452;-73
2022/01/02 10:45:11;;;;;;;28.03;26.10;;;10.60;78.00;;;;;;5034239;28;20509;-74
2022/01/02 10:47:45;;;;;;;29.77;27.77;;;10.60;77.70;;;;;;5034386;28;20527;-74
2022/01/02 10:50:13;;;;;;;26.80;25.10;;;10.60;77.20;;;;;;5033859;28;20479;-73
2022/01/02 10:52:41;;;;;;;28.50;26.77;;;10.60;77.10;;;;;;5034191;28;20539;-73
2022/01/02 10:55:15;;;;;;;26.23;24.30;;;10.50;77.50;;;;;;5034102;28;20863;-74
2022/01/02 10:57:43;;;;;;;27.43;25.73;;;10.50;78.10;;;;;;5033352;28;20562;-74
2022/01/02 11:00:11;;;;;;;27.50;25.60;;;10.60;78.30;;;;;;5033857;28;20472;-74
2022/01/02 11:02:40;;;;;;;27.30;25.60;;;10.70;78.10;;;;;;5033990;28;20459;-74
2022/01/02 11:05:10;;;;;;;29.90;27.70;;;10.80;77.80;;;;;;5033889;28;20546;-74
2022/01/02 11:07:40;;;;;;;27.00;25.33;;;10.90;76.90;;;;;;5033830;28;20547;-73
2022/01/02 11:10:09;;;;;;;26.53;24.73;;;10.80;76.60;;;;;;5033853;28;20547;-74
2022/01/02 11:12:37;;;;;;;25.73;24.03;;;10.90;77.40;;;;;;5034000;28;20535;-74
2022/01/02 11:15:07;;;;;;;26.40;24.70;;;11.10;76.40;;;;;;5033782;28;20889;-73
2022/01/02 11:17:35;;;;;;;26.40;24.87;;;11.20;75.90;;;;;;5033547;28;20583;-73
2022/01/02 11:20:05;;;;;;;25.90;24.10;;;11.30;75.40;;;;;;5033529;28;20495;-74
2022/01/02 11:22:36;;;;;;;24.47;23.07;;;11.30;75.90;;;;;;5033736;28;20534;-74
2022/01/02 11:25:10;;;;;;;25.83;24.47;;;11.50;75.20;;;;;;5033459;28;20539;-74
2022/01/02 11:27:44;;;;;;;25.03;23.53;;;11.70;74.20;;;;;;5033553;28;20528;-74
2022/01/02 11:30:36;;;;;;;23.90;22.60;;;11.90;73.50;;;;;;5033239;28;20481;-74
2022/01/02 11:33:04;;;;;;;26.90;25.40;;;12.20;72.50;;;;;;5019190;28;20502;-74
2022/01/02 11:35:35;;;;;;;24.30;22.90;;;12.30;71.50;;;;;;5033312;28;20448;-74
2022/01/02 11:38:03;;;;;;;24.30;22.90;;;12.40;71.00;;;;;;5033439;28;20941;-73
2022/01/02 11:40:48;;;;;;;24.67;23.10;;;12.50;70.50;;;;;;5033083;28;20514;-73
2022/01/02 11:43:56;;;;;;;24.90;23.40;;;12.60;69.70;;;;;;5033148;28;20499;-74
2022/01/02 11:46:26;;;;;;;23.13;21.83;;;12.80;68.50;;;;;;5032991;28;20480;-74
2022/01/02 11:49:27;;;;;;;23.80;22.27;;;12.90;68.00;;;;;;5033222;28;20490;-74
2022/01/02 11:52:23;;;;;;;24.50;23.00;;;13.00;67.90;;;;;;5033470;28;20456;-74
2022/01/02 11:54:57;;;;;;;23.00;21.70;;;13.00;68.20;;;;;;5033173;28;20439;-74
2022/01/02 11:57:51;;;;;;;24.53;23.13;;;13.10;67.50;;;;;;5033066;28;20561;-74
2022/01/02 12:00:40;;;;;;;23.67;22.27;;;13.10;68.10;;;;;;5032805;28;20502;-74
2022/01/02 12:03:45;;;;;;;23.00;21.70;;;13.20;66.30;;;;;;5033042;28;20902;-74
2022/01/02 12:06:24;;;;;;;23.30;22.20;;;13.40;66.00;;;;;;5032970;28;20448;-74
2022/01/02 12:08:54;;;;;;;22.30;20.83;;;13.50;64.80;;;;;;5032723;28;20468;-74
2022/01/02 12:11:41;;;;;;;21.87;20.77;;;13.60;63.10;;;;;;5032830;28;20458;-74
2022/01/02 12:14:09;;;;;;;22.17;20.87;;;13.80;62.20;;;;;;5032783;28;20467;-74
2022/01/02 12:16:39;;;;;;;22.50;21.30;;;13.90;61.40;;;;;;5032636;28;20559;-74
2022/01/02 12:19:08;;;;;;;24.07;22.97;;;14.00;60.80;;;;;;5032686;28;20973;-74
2022/01/02 12:21:35;;;;;;;23.40;22.20;;;14.10;60.30;;;;;;5032637;28;20452;-74
2022/01/02 12:24:07;;;;;;;23.00;21.80;;;14.30;59.60;;;;;;5032827;28;20458;-74
2022/01/02 12:26:38;;;;;;;22.50;21.30;;;14.50;59.20;;;;;;5032596;28;20529;-74
2022/01/02 12:29:06;;;;;;;22.37;21.17;;;14.60;58.50;;;;;;5032745;28;20534;-74
2022/01/02 12:31:36;;;;;;;23.40;22.13;;;14.70;58.80;;;;;;5032306;28;20486;-74
2022/01/02 12:34:06;;;;;;;23.70;22.30;;;14.90;60.50;;;;;;5032523;28;21003;-74
2022/01/02 12:36:33;;;;;;;22.80;21.60;;;15.00;57.90;;;;;;5032432;28;20570;-74
2022/01/02 12:39:04;;;;;;;24.30;23.00;;;15.10;57.10;;;;;;5032429;28;20475;-74
2022/01/02 12:41:32;;;;;;;22.30;21.13;;;15.20;57.10;;;;;;5032533;28;20456;-74
2022/01/02 12:44:00;;;;;;;23.37;22.17;;;15.30;56.30;;;;;;5032630;28;20459;-74
2022/01/02 12:46:49;;;;;;;24.20;22.73;;;15.40;55.80;;;;;;5032415;28;20984;-74
2022/01/02 12:49:18;;;;;;;23.70;22.50;;;15.50;55.70;;;;;;5027655;28;20476;-74
2022/01/02 12:51:48;;;;;;;22.60;21.37;;;15.60;55.50;;;;;;5032385;28;20531;-74
2022/01/02 12:54:18;;;;;;;22.70;21.20;;;15.60;55.80;;;;;;5032278;28;20447;-74